createdAt,value
2022-08-28T00:01:24.651Z,98233.00
2022-08-28T00:04:12.216Z,98236.00
2022-08-28T00:06:59.741Z,98240.00
2022-08-28T00:09:47.297Z,98232.00
2022-08-28T00:12:36.827Z,98239.00
2022-08-28T00:15:30.596Z,98238.00
2022-08-28T00:18:18.942Z,98235.00
2022-08-28T00:21:07.211Z,98235.00
2022-08-28T00:23:54.841Z,98234.00
2022-08-28T00:27:01.596Z,98236.00
2022-08-28T00:29:49.257Z,98227.00
2022-08-28T00:32:36.837Z,98227.00
2022-08-28T00:35:25.351Z,98230.00
2022-08-28T00:38:15.007Z,98237.00
2022-08-28T00:41:04.856Z,98242.00
2022-08-28T00:44:27.637Z,98241.00
2022-08-28T00:47:15.157Z,98247.00
2022-08-28T00:50:05.527Z,98247.00
2022-08-28T00:53:00.950Z,98248.00
2022-08-28T00:55:50.456Z,98250.00
2022-08-28T00:58:40.266Z,98244.00
2022-08-28T01:01:27.770Z,98249.00
2022-08-28T01:04:19.571Z,98244.00
2022-08-28T01:07:11.068Z,98241.00
2022-08-28T01:09:59.693Z,98244.00
2022-08-28T01:12:50.127Z,98232.00
2022-08-28T01:15:40.425Z,98237.00
2022-08-28T01:18:28.966Z,98238.00
2022-08-28T01:21:43.030Z,98231.00
2022-08-28T01:24:32.736Z,98232.00
2022-08-28T01:27:23.975Z,98232.00
2022-08-28T01:30:21.761Z,98232.00
2022-08-28T01:33:09.527Z,98244.00
2022-08-28T01:35:59.863Z,98250.00
2022-08-28T01:38:56.071Z,98245.00
2022-08-28T01:41:48.071Z,98251.00
2022-08-28T01:44:35.598Z,98241.00
2022-08-28T01:47:23.433Z,98247.00
2022-08-28T01:50:16.286Z,98253.00
2022-08-28T01:53:07.652Z,98249.00
2022-08-28T01:56:04.939Z,98246.00
2022-08-28T01:58:53.031Z,98251.00
2022-08-28T02:01:43.119Z,98251.00
2022-08-28T02:04:32.382Z,98250.00
2022-08-28T02:07:20.570Z,98252.00
2022-08-28T02:10:12.136Z,98255.00
2022-08-28T02:13:00.631Z,98257.00
2022-08-28T02:15:49.191Z,98252.00
2022-08-28T02:18:38.001Z,98258.00
2022-08-28T02:21:25.483Z,98254.00
2022-08-28T02:24:13.048Z,98255.00
2022-08-28T02:27:02.483Z,98253.00
2022-08-28T02:29:50.116Z,98254.00
2022-08-28T02:32:38.496Z,98254.00
2022-08-28T02:35:26.021Z,98250.00
2022-08-28T02:38:14.477Z,98252.00
2022-08-28T02:41:04.390Z,98245.00
2022-08-28T02:43:52.447Z,98248.00
2022-08-28T02:46:39.967Z,98245.00
2022-08-28T02:49:33.067Z,98244.00
2022-08-28T02:52:24.882Z,98251.00
2022-08-28T02:55:15.485Z,98244.00
2022-08-28T02:58:04.122Z,98238.00
2022-08-28T03:00:51.610Z,98245.00
2022-08-28T03:03:41.446Z,98250.00
2022-08-28T03:06:32.887Z,98255.00
2022-08-28T03:09:20.437Z,98260.00
2022-08-28T03:12:09.656Z,98260.00
2022-08-28T03:14:57.158Z,98258.00
2022-08-28T03:17:45.576Z,98256.00
2022-08-28T03:20:35.764Z,98260.00
2022-08-28T03:23:26.692Z,98264.00
2022-08-28T03:26:18.951Z,98263.00
2022-08-28T03:29:06.525Z,98262.00
2022-08-28T03:31:54.127Z,98262.00
2022-08-28T03:34:41.728Z,98258.00
2022-08-28T03:37:29.399Z,98266.00
2022-08-28T03:40:17.175Z,98272.00
2022-08-28T03:43:04.673Z,98268.00
2022-08-28T03:46:04.125Z,98262.00
2022-08-28T03:48:54.288Z,98271.00
2022-08-28T03:51:42.040Z,98272.00
2022-08-28T03:54:31.818Z,98269.00
2022-08-28T03:57:22.397Z,98270.00
2022-08-28T04:00:13.552Z,98278.00
2022-08-28T04:03:01.231Z,98289.00
2022-08-28T04:05:48.920Z,98282.00
2022-08-28T04:08:36.868Z,98282.00
2022-08-28T04:11:24.457Z,98288.00
2022-08-28T04:14:17.807Z,98281.00
2022-08-28T04:17:07.180Z,98291.00
2022-08-28T04:19:54.992Z,98286.00
2022-08-28T04:22:42.794Z,98292.00
2022-08-28T04:25:32.874Z,98300.00
2022-08-28T04:28:20.648Z,98299.00
2022-08-28T04:31:09.227Z,98298.00
2022-08-28T04:33:56.697Z,98298.00
2022-08-28T04:36:44.548Z,98297.00
2022-08-28T04:39:33.009Z,98296.00
2022-08-28T04:42:20.542Z,98298.00
2022-08-28T04:45:08.850Z,98293.00
2022-08-28T04:47:56.368Z,98305.00
2022-08-28T04:50:49.697Z,98302.00
2022-08-28T04:53:39.237Z,98304.00
2022-08-28T04:56:27.062Z,98303.00
2022-08-28T04:59:14.668Z,98305.00
2022-08-28T05:02:03.403Z,98304.00
2022-08-28T05:04:51.017Z,98310.00
2022-08-28T05:07:38.523Z,98311.00
2022-08-28T05:10:27.097Z,98315.00
2022-08-28T05:13:18.294Z,98309.00
2022-08-28T05:16:06.985Z,98311.00
2022-08-28T05:18:54.544Z,98315.00
2022-08-28T05:21:42.822Z,98323.00
2022-08-28T05:24:30.352Z,98321.00
2022-08-28T05:27:17.871Z,98320.00
2022-08-28T05:30:07.757Z,98317.00
2022-08-28T05:32:55.477Z,98320.00
2022-08-28T05:35:46.253Z,98321.00
2022-08-28T05:38:34.967Z,98329.00
2022-08-28T05:41:26.597Z,98325.00
2022-08-28T05:44:17.548Z,98335.00
2022-08-28T05:47:05.127Z,98332.00
2022-08-28T05:49:52.697Z,98335.00
2022-08-28T05:52:44.077Z,98338.00
2022-08-28T05:55:31.593Z,98339.00
2022-08-28T05:58:31.920Z,98343.00
2022-08-28T06:01:27.259Z,98343.00
2022-08-28T06:04:25.467Z,98341.00
2022-08-28T06:07:15.498Z,98341.00
2022-08-28T06:10:03.287Z,98342.00
2022-08-28T06:12:53.047Z,98337.00
2022-08-28T06:15:45.910Z,98335.00
2022-08-28T06:18:33.453Z,98335.00
2022-08-28T06:21:21.752Z,98347.00
2022-08-28T06:24:12.151Z,98343.00
2022-08-28T06:27:00.644Z,98353.00
2022-08-28T06:29:48.672Z,98344.00
2022-08-28T06:32:36.168Z,98342.00
2022-08-28T06:35:23.827Z,98347.00
2022-08-28T06:38:12.733Z,98351.00
2022-08-28T06:41:00.637Z,98351.00
2022-08-28T06:43:48.556Z,98349.00
2022-08-28T06:46:36.942Z,98343.00
2022-08-28T06:49:26.097Z,98347.00
2022-08-28T06:52:13.599Z,98349.00
2022-08-28T06:55:01.676Z,98353.00
2022-08-28T06:57:50.749Z,98351.00
2022-08-28T07:00:40.469Z,98368.00
2022-08-28T07:03:30.309Z,98362.00
2022-08-28T07:06:19.737Z,98364.00
2022-08-28T07:09:11.440Z,98369.00
2022-08-28T07:11:58.987Z,98370.00
2022-08-28T07:14:46.495Z,98363.00
2022-08-28T07:17:34.357Z,98373.00
2022-08-28T07:20:22.739Z,98373.00
2022-08-28T07:23:11.451Z,98376.00
2022-08-28T07:26:00.414Z,98388.00
2022-08-28T07:28:48.617Z,98381.00
2022-08-28T07:31:36.641Z,98386.00
2022-08-28T07:34:27.195Z,98386.00
2022-08-28T07:37:18.617Z,98393.00
2022-08-28T07:40:08.666Z,98396.00
2022-08-28T07:43:17.472Z,98392.00
2022-08-28T07:46:09.184Z,98399.00
2022-08-28T07:48:58.872Z,98403.00
2022-08-28T07:51:46.708Z,98397.00
2022-08-28T07:54:36.202Z,98409.00
2022-08-28T07:57:24.096Z,98410.00
2022-08-28T08:00:13.652Z,98409.00
2022-08-28T08:03:01.381Z,98413.00
2022-08-28T08:06:04.602Z,98413.00
2022-08-28T08:08:52.312Z,98414.00
2022-08-28T08:11:39.936Z,98422.00
2022-08-28T08:14:27.459Z,98423.00
2022-08-28T08:17:14.973Z,98412.00
2022-08-28T08:20:03.515Z,98411.00
2022-08-28T08:22:51.016Z,98416.00
2022-08-28T08:25:38.529Z,98419.00
2022-08-28T08:28:28.567Z,98414.00
2022-08-28T08:31:19.967Z,98421.00
2022-08-28T08:34:09.563Z,98416.00
2022-08-28T08:36:57.208Z,98422.00
2022-08-28T08:39:44.812Z,98424.00
2022-08-28T08:42:34.772Z,98431.00
2022-08-28T08:45:26.795Z,98427.00
2022-08-28T08:48:35.372Z,98441.00
2022-08-28T08:51:39.592Z,98429.00
2022-08-28T08:54:27.548Z,98438.00
2022-08-28T08:57:16.134Z,98435.00
2022-08-28T09:00:15.699Z,98440.00
2022-08-28T09:03:15.550Z,98439.00
2022-08-28T09:06:05.832Z,98444.00
2022-08-28T09:09:07.587Z,98438.00
2022-08-28T09:12:05.112Z,98441.00
2022-08-28T09:15:20.692Z,98440.00
2022-08-28T09:18:21.527Z,98438.00
2022-08-28T09:21:09.351Z,98446.00
2022-08-28T09:24:05.783Z,98453.00
2022-08-28T09:27:25.071Z,98446.00
2022-08-28T09:30:12.827Z,98450.00
2022-08-28T09:33:01.892Z,98452.00
2022-08-28T09:35:49.594Z,98450.00
2022-08-28T09:38:39.119Z,98446.00
2022-08-28T09:41:45.261Z,98448.00
2022-08-28T09:44:32.928Z,98446.00
2022-08-28T09:47:49.811Z,98450.00
2022-08-28T09:50:42.547Z,98451.00
2022-08-28T09:53:34.832Z,98448.00
2022-08-28T09:56:39.933Z,98444.00
2022-08-28T09:59:29.775Z,98446.00
2022-08-28T10:02:43.342Z,98449.00
2022-08-28T10:05:59.693Z,98451.00
2022-08-28T10:09:13.006Z,98453.00
2022-08-28T10:12:44.690Z,98460.00
2022-08-28T10:16:02.308Z,98462.00
2022-08-28T10:19:24.325Z,98462.00
2022-08-28T10:22:40.300Z,98452.00
2022-08-28T10:26:02.592Z,98461.00
2022-08-28T10:29:04.728Z,98458.00
2022-08-28T10:32:28.154Z,98457.00
2022-08-28T10:35:25.868Z,98455.00
2022-08-28T10:38:42.022Z,98464.00
2022-08-28T10:41:49.457Z,98450.00
2022-08-28T10:45:12.817Z,98452.00
2022-08-28T10:48:30.281Z,98453.00
2022-08-28T10:51:35.384Z,98453.00
2022-08-28T10:54:43.981Z,98450.00
2022-08-28T10:58:24.818Z,98451.00
2022-08-28T11:01:31.245Z,98452.00
2022-08-28T11:04:25.598Z,98456.00
2022-08-28T11:07:27.053Z,98453.00
2022-08-28T11:10:29.145Z,98456.00
2022-08-28T11:13:58.497Z,98460.00
2022-08-28T11:16:50.185Z,98458.00
2022-08-28T11:20:17.711Z,98453.00
2022-08-28T11:23:23.932Z,98458.00
2022-08-28T11:26:23.711Z,98457.00
2022-08-28T11:30:02.602Z,98455.00
2022-08-28T11:32:52.573Z,98471.00
2022-08-28T11:35:46.673Z,98465.00
2022-08-28T11:38:43.477Z,98468.00
2022-08-28T11:41:40.346Z,98472.00
2022-08-28T11:44:45.126Z,98476.00
2022-08-28T11:47:49.075Z,98473.00
2022-08-28T11:51:18.480Z,98470.00
2022-08-28T11:54:49.413Z,98474.00
2022-08-28T12:01:08.057Z,98481.00
2022-08-28T12:04:07.939Z,98475.00
2022-08-28T12:07:17.313Z,98477.00
2022-08-28T12:10:24.882Z,98480.00
2022-08-28T12:13:52.577Z,98482.00
2022-08-28T12:16:58.822Z,98489.00
2022-08-28T12:20:11.214Z,98500.00
2022-08-28T12:23:22.900Z,98500.00
2022-08-28T12:26:30.116Z,98495.00
2022-08-28T12:29:44.159Z,98491.00
2022-08-28T12:32:47.812Z,98491.00
2022-08-28T12:35:36.591Z,98487.00
2022-08-28T12:38:24.763Z,98482.00
2022-08-28T12:41:17.947Z,98486.00
2022-08-28T12:44:12.343Z,98484.00
2022-08-28T12:47:00.372Z,98485.00
2022-08-28T12:49:48.029Z,98485.00
2022-08-28T12:52:35.932Z,98486.00
2022-08-28T12:55:25.008Z,98484.00
2022-08-28T12:58:27.067Z,98487.00
2022-08-28T13:01:35.624Z,98485.00
2022-08-28T13:04:36.997Z,98481.00
2022-08-28T13:07:34.217Z,98486.00
2022-08-28T13:10:42.397Z,98484.00
2022-08-28T13:13:37.989Z,98480.00
2022-08-28T13:16:46.812Z,98483.00
2022-08-28T13:19:36.692Z,98484.00
2022-08-28T13:22:50.636Z,98489.00
2022-08-28T13:25:38.897Z,98496.00
2022-08-28T13:28:27.507Z,98496.00
2022-08-28T13:31:34.753Z,98503.00
2022-08-28T13:34:26.907Z,98500.00
2022-08-28T13:37:44.247Z,98497.00
2022-08-28T13:40:58.541Z,98494.00
2022-08-28T13:43:47.947Z,98501.00
2022-08-28T13:46:35.898Z,98493.00
2022-08-28T13:49:23.927Z,98494.00
2022-08-28T13:52:12.707Z,98498.00
2022-08-28T13:55:01.647Z,98499.00
2022-08-28T13:57:49.207Z,98504.00
2022-08-28T14:00:43.466Z,98498.00
2022-08-28T14:03:37.931Z,98504.00
2022-08-28T14:06:31.489Z,98503.00
2022-08-28T14:09:19.444Z,98504.00
2022-08-28T14:12:10.410Z,98496.00
2022-08-28T14:14:57.992Z,98490.00
2022-08-28T14:17:45.967Z,98496.00
2022-08-28T14:20:33.673Z,98495.00
2022-08-28T14:23:21.335Z,98501.00
2022-08-28T14:26:08.902Z,98504.00
2022-08-28T14:29:03.650Z,98500.00
2022-08-28T14:31:51.533Z,98501.00
2022-08-28T14:34:39.113Z,98503.00
2022-08-28T14:37:26.772Z,98501.00
2022-08-28T14:40:14.560Z,98503.00
2022-08-28T14:43:02.108Z,98501.00
2022-08-28T14:45:51.050Z,98503.00
2022-08-28T14:48:38.643Z,98501.00
2022-08-28T14:51:27.468Z,98507.00
2022-08-28T14:54:19.027Z,98506.00
2022-08-28T14:57:06.932Z,98509.00
2022-08-28T14:59:54.472Z,98508.00
2022-08-28T15:02:41.912Z,98508.00
2022-08-28T15:05:29.842Z,98510.00
2022-08-28T15:08:17.767Z,98504.00
2022-08-28T15:11:14.289Z,98505.00
2022-08-28T15:14:06.704Z,98504.00
2022-08-28T15:16:54.266Z,98501.00
2022-08-28T15:19:41.824Z,98499.00
2022-08-28T15:22:29.348Z,98503.00
2022-08-28T15:25:17.734Z,98503.00
2022-08-28T15:28:05.962Z,98505.00
2022-08-28T15:30:53.497Z,98503.00
2022-08-28T15:33:45.203Z,98505.00
2022-08-28T15:36:36.585Z,98506.00
2022-08-28T15:39:46.838Z,98516.00
2022-08-28T15:42:34.352Z,98516.00
2022-08-28T15:45:22.976Z,98514.00
2022-08-28T15:48:11.686Z,98517.00
2022-08-28T15:50:59.162Z,98516.00
2022-08-28T15:53:48.087Z,98513.00
2022-08-28T15:56:35.598Z,98518.00
2022-08-28T15:59:23.649Z,98516.00
2022-08-28T16:02:13.090Z,98514.00
2022-08-28T16:05:00.672Z,98520.00
2022-08-28T16:07:48.560Z,98525.00
2022-08-28T16:10:36.407Z,98524.00
2022-08-28T16:13:24.230Z,98520.00
2022-08-28T16:16:12.377Z,98514.00
2022-08-28T16:19:00.077Z,98521.00
2022-08-28T16:21:47.627Z,98515.00
2022-08-28T16:24:35.581Z,98523.00
2022-08-28T16:27:23.515Z,98522.00
2022-08-28T16:30:15.693Z,98536.00
2022-08-28T16:33:08.642Z,98534.00
2022-08-28T16:35:56.620Z,98531.00
2022-08-28T16:38:49.683Z,98537.00
2022-08-28T16:41:50.168Z,98529.00
2022-08-28T16:44:37.743Z,98539.00
2022-08-28T16:47:26.990Z,98531.00
2022-08-28T16:50:15.963Z,98542.00
2022-08-28T16:53:06.884Z,98545.00
2022-08-28T16:55:55.016Z,98538.00
2022-08-28T16:58:45.033Z,98538.00
2022-08-28T17:01:32.748Z,98542.00
2022-08-28T17:04:20.536Z,98543.00
2022-08-28T17:07:08.087Z,98546.00
2022-08-28T17:09:55.696Z,98541.00
2022-08-28T17:12:43.494Z,98549.00
2022-08-28T17:15:31.092Z,98550.00
2022-08-28T17:18:18.674Z,98557.00
2022-08-28T17:21:25.462Z,98555.00
2022-08-28T17:24:13.636Z,98566.00
2022-08-28T17:27:05.408Z,98563.00
2022-08-28T17:29:53.407Z,98569.00
2022-08-28T17:32:41.072Z,98576.00
2022-08-28T17:35:28.697Z,98576.00
2022-08-28T17:38:16.227Z,98579.00
2022-08-28T17:41:06.512Z,98579.00
2022-08-28T17:43:53.992Z,98585.00
2022-08-28T17:46:41.727Z,98588.00
2022-08-28T17:49:29.380Z,98588.00
2022-08-28T17:52:16.907Z,98597.00
2022-08-28T17:55:06.533Z,98601.00
2022-08-28T17:57:54.040Z,98606.00
2022-08-28T18:00:43.383Z,98606.00
2022-08-28T18:03:31.912Z,98602.00
2022-08-28T18:06:27.521Z,98598.00
2022-08-28T18:09:15.413Z,98604.00
2022-08-28T18:12:03.642Z,98605.00
2022-08-28T18:14:51.236Z,98604.00
2022-08-28T18:17:43.257Z,98608.00
2022-08-28T18:20:30.778Z,98607.00
2022-08-28T18:23:18.358Z,98613.00
2022-08-28T18:26:07.773Z,98623.00
2022-08-28T18:28:55.303Z,98623.00
2022-08-28T18:31:43.694Z,98627.00
2022-08-28T18:34:31.837Z,98634.00
2022-08-28T18:37:19.312Z,98634.00
2022-08-28T18:40:07.571Z,98639.00
2022-08-28T18:42:55.168Z,98640.00
2022-08-28T18:45:42.768Z,98638.00
2022-08-28T18:48:32.647Z,98637.00
2022-08-28T18:51:23.497Z,98642.00
2022-08-28T18:54:14.351Z,98646.00
2022-08-28T18:57:04.596Z,98649.00
2022-08-28T18:59:53.267Z,98646.00
2022-08-28T19:02:41.828Z,98655.00
2022-08-28T19:05:29.852Z,98651.00
2022-08-28T19:08:19.026Z,98653.00
2022-08-28T19:11:13.192Z,98650.00
2022-08-28T19:14:03.967Z,98652.00
2022-08-28T19:16:51.674Z,98652.00
2022-08-28T19:19:39.612Z,98660.00
2022-08-28T19:22:29.958Z,98661.00
2022-08-28T19:25:28.432Z,98655.00
2022-08-28T19:28:16.617Z,98659.00
2022-08-28T19:31:05.099Z,98660.00
2022-08-28T19:33:52.658Z,98661.00
2022-08-28T19:36:41.953Z,98670.00
2022-08-28T19:39:30.217Z,98669.00
2022-08-28T19:42:18.748Z,98667.00
2022-08-28T19:45:08.866Z,98674.00
2022-08-28T19:47:57.027Z,98677.00
2022-08-28T19:50:45.732Z,98680.00
2022-08-28T19:53:33.897Z,98679.00
2022-08-28T19:56:25.389Z,98682.00
2022-08-28T19:59:12.843Z,98693.00
2022-08-28T20:02:03.192Z,98687.00
2022-08-28T20:04:52.796Z,98691.00
2022-08-28T20:07:40.977Z,98701.00
2022-08-28T20:10:28.473Z,98698.00
2022-08-28T20:13:17.690Z,98699.00
2022-08-28T20:16:06.224Z,98699.00
2022-08-28T20:18:55.463Z,98707.00
2022-08-28T20:21:45.013Z,98707.00
2022-08-28T20:24:32.648Z,98706.00
2022-08-28T20:27:21.377Z,98704.00
2022-08-28T20:30:11.408Z,98715.00
2022-08-28T20:33:01.197Z,98702.00
2022-08-28T20:35:48.788Z,98699.00
2022-08-28T20:38:38.612Z,98701.00
2022-08-28T20:41:26.592Z,98695.00
2022-08-28T20:44:18.753Z,98694.00
2022-08-28T20:47:06.837Z,98696.00
2022-08-28T20:49:56.998Z,98697.00
2022-08-28T20:52:44.548Z,98698.00
2022-08-28T20:55:32.108Z,98702.00
2022-08-28T20:58:19.617Z,98699.00
2022-08-28T21:01:07.180Z,98703.00
2022-08-28T21:03:54.731Z,98702.00
2022-08-28T21:06:44.791Z,98698.00
2022-08-28T21:09:33.479Z,98708.00
2022-08-28T21:12:40.341Z,98706.00
2022-08-28T21:15:28.483Z,98706.00
2022-08-28T21:18:16.387Z,98701.00
2022-08-28T21:21:06.953Z,98700.00
2022-08-28T21:23:56.627Z,98710.00
2022-08-28T21:26:47.857Z,98709.00
2022-08-28T21:29:36.187Z,98714.00
2022-08-28T21:32:23.882Z,98717.00
2022-08-28T21:35:13.911Z,98714.00
2022-08-28T21:38:01.397Z,98716.00
2022-08-28T21:40:48.987Z,98720.00
2022-08-28T21:43:36.492Z,98721.00
2022-08-28T21:46:24.609Z,98723.00
2022-08-28T21:49:12.288Z,98726.00
2022-08-28T21:52:01.281Z,98723.00
2022-08-28T21:54:49.791Z,98719.00
2022-08-28T21:57:37.953Z,98724.00
2022-08-28T22:00:25.572Z,98714.00
2022-08-28T22:03:13.132Z,98728.00
2022-08-28T22:06:00.867Z,98727.00
2022-08-28T22:08:49.906Z,98738.00
2022-08-28T22:11:37.554Z,98740.00
2022-08-28T22:14:25.250Z,98746.00
2022-08-28T22:17:13.383Z,98746.00
2022-08-28T22:20:01.067Z,98751.00
2022-08-28T22:23:07.378Z,98750.00
2022-08-28T22:25:55.517Z,98747.00
2022-08-28T22:28:43.712Z,98753.00
2022-08-28T22:31:31.800Z,98740.00
2022-08-28T22:34:20.095Z,98744.00
2022-08-28T22:37:11.544Z,98750.00
2022-08-28T22:39:59.379Z,98747.00
2022-08-28T22:42:47.491Z,98751.00
2022-08-28T22:45:35.043Z,98751.00
2022-08-28T22:48:22.577Z,98753.00
2022-08-28T22:51:18.624Z,98753.00
2022-08-28T22:54:06.327Z,98755.00
2022-08-28T22:56:53.852Z,98749.00
2022-08-28T22:59:42.214Z,98758.00
2022-08-28T23:02:30.592Z,98751.00
2022-08-28T23:05:18.591Z,98758.00
2022-08-28T23:08:06.131Z,98750.00
2022-08-28T23:10:59.301Z,98756.00
2022-08-28T23:13:47.297Z,98755.00
2022-08-28T23:16:35.512Z,98755.00
2022-08-28T23:19:23.838Z,98754.00
2022-08-28T23:22:11.467Z,98749.00
2022-08-28T23:24:59.024Z,98751.00
2022-08-28T23:27:47.618Z,98748.00
2022-08-28T23:30:35.221Z,98742.00
2022-08-28T23:33:24.128Z,98747.00
2022-08-28T23:36:12.329Z,98751.00
2022-08-28T23:38:59.827Z,98744.00
2022-08-28T23:41:47.492Z,98741.00
2022-08-28T23:44:35.278Z,98741.00
2022-08-28T23:47:22.912Z,98749.00
2022-08-28T23:50:19.857Z,98750.00
2022-08-28T23:53:08.646Z,98750.00
2022-08-28T23:55:56.947Z,98750.00
2022-08-28T23:58:47.197Z,98754.00
